Time;durP1;ratioP1;P1;durP2;ratioP2;P2;SDS_P1;SDS_P2;PMS_P1;PMS_P2;Temp;Humidity;BMP_temperature;BMP_pressure;BME280_temperature;BME280_humidity;BME280_pressure;Samples;Min_cycle;Max_cycle;Signal;HPM_P1;HPM_P2
2023/10/09 00:02:10;;;;;;;16.43;5.07;;;;;;;2.00;78.91;100940.19;4202815;28;23441;-69
2023/10/09 00:04:41;;;;;;;13.80;4.60;;;;;;;1.89;79.39;100934.50;4207944;28;20360;-70
2023/10/09 00:07:10;;;;;;;12.17;4.23;;;;;;;1.93;79.75;100936.09;4218354;28;20231;-67
2023/10/09 00:09:46;;;;;;;13.17;4.30;;;;;;;1.94;79.04;100934.28;4208685;28;20244;-69
2023/10/09 00:12:22;;;;;;;15.83;4.67;;;;;;;1.90;79.55;100936.25;4204233;28;20264;-68
2023/10/09 00:14:55;;;;;;;10.87;4.17;;;;;;;1.66;80.50;100930.38;4209499;28;20238;-70
2023/10/09 00:17:23;;;;;;;11.93;5.23;;;;;;;1.62;80.67;100929.66;4218618;28;21306;-67
2023/10/09 00:19:59;;;;;;;20.83;6.17;;;;;;;1.65;80.86;100933.97;4209722;28;21228;-68
2023/10/09 00:22:26;;;;;;;16.13;6.30;;;;;;;1.67;80.57;100932.09;4210760;28;20240;-72
2023/10/09 00:25:10;;;;;;;18.07;5.83;;;;;;;1.59;81.26;100940.47;4207282;28;20927;-70
2023/10/09 00:27:45;;;;;;;13.93;5.27;;;;;;;1.62;80.73;100923.47;4205351;28;20814;-71
2023/10/09 00:30:18;;;;;;;13.30;4.70;;;;;;;1.70;80.58;100918.59;4208153;28;20239;-70
2023/10/09 00:32:59;;;;;;;11.60;4.63;;;;;;;1.65;80.97;100921.50;4203077;28;20463;-69
2023/10/09 00:35:36;;;;;;;14.00;4.80;;;;;;;1.64;81.05;100913.56;4206855;28;20232;-71
2023/10/09 00:40:57;;;;;;;13.53;4.90;;;;;;;1.58;81.27;100898.75;4211082;28;21378;-69
2023/10/09 00:43:28;;;;;;;13.47;4.97;;;;;;;1.67;81.38;100895.59;4207518;28;20232;-72
2023/10/09 00:46:02;;;;;;;10.50;4.50;;;;;;;1.72;81.31;100898.91;4207932;28;20231;-69
2023/10/09 00:48:31;;;;;;;15.97;5.43;;;;;;;1.83;80.74;100901.00;4203306;28;20236;-68
2023/10/09 00:51:00;;;;;;;19.43;5.67;;;;;;;1.77;81.09;100898.66;4205258;28;20230;-69
2023/10/09 00:53:33;;;;;;;13.33;4.97;;;;;;;1.69;81.35;100892.84;4208117;28;20829;-70
2023/10/09 00:56:21;;;;;;;12.83;4.50;;;;;;;1.63;81.40;100888.69;4208237;28;20232;-69
2023/10/09 00:58:55;;;;;;;11.47;4.40;;;;;;;1.68;81.43;100889.31;4203303;28;20255;-69
2023/10/09 01:01:34;;;;;;;12.27;4.50;;;;;;;1.71;81.55;100882.94;4203817;28;20337;-71
2023/10/09 01:04:11;;;;;;;12.43;4.57;;;;;;;1.72;81.61;100885.56;4194272;28;22189;-70
2023/10/09 01:06:45;;;;;;;10.20;4.17;;;;;;;1.71;81.26;100889.16;4219837;28;20311;-68
2023/10/09 01:09:13;;;;;;;10.83;4.13;;;;;;;1.70;81.70;100883.91;4201629;28;20592;-71
2023/10/09 01:11:48;;;;;;;13.40;4.53;;;;;;;1.80;81.31;100879.81;4228706;28;20252;-69
2023/10/09 01:14:16;;;;;;;10.63;4.30;;;;;;;1.81;81.43;100868.19;4209753;28;20651;-68
2023/10/09 01:16:44;;;;;;;12.00;4.80;;;;;;;1.87;81.68;100865.19;4209396;28;20304;-70
2023/10/09 01:19:19;;;;;;;13.07;5.27;;;;;;;1.81;81.72;100868.19;4214691;28;21719;-71
2023/10/09 01:21:48;;;;;;;16.70;4.97;;;;;;;1.70;81.95;100862.56;4218954;28;20236;-70
2023/10/09 01:24:16;;;;;;;17.17;5.00;;;;;;;1.73;82.27;100863.25;4213134;28;20240;-69
2023/10/09 01:26:49;;;;;;;18.97;5.43;;;;;;;1.76;81.71;100848.88;4227812;28;25295;-70
2023/10/09 01:29:21;;;;;;;17.33;5.10;;;;;;;2.01;80.49;100853.78;4210718;28;20236;-72
2023/10/09 01:32:00;;;;;;;17.53;5.30;;;;;;;2.01;80.46;100845.78;4233126;28;20256;-71
2023/10/09 01:34:43;;;;;;;19.43;5.47;;;;;;;2.07;80.06;100836.59;4208547;28;20374;-69
2023/10/09 01:37:29;;;;;;;15.57;5.10;;;;;;;2.01;80.00;100848.44;4222793;28;20955;-71
2023/10/09 01:39:59;;;;;;;17.93;5.13;;;;;;;2.16;79.72;100860.09;4201737;28;20290;-69
2023/10/09 01:45:10;;;;;;;18.30;4.87;;;;;;;1.94;80.21;100846.16;4213731;28;22216;-69
2023/10/09 01:47:37;;;;;;;15.37;4.97;;;;;;;2.01;79.92;100850.22;4205870;28;21149;-68
2023/10/09 01:50:22;;;;;;;19.37;6.07;;;;;;;2.13;79.29;100844.25;4227924;28;20234;-70
2023/10/09 01:52:49;;;;;;;17.07;6.07;;;;;;;2.13;79.15;100846.03;4212645;28;20341;-69
2023/10/09 02:00:53;;;;;;;19.73;6.27;;;;;;;2.07;80.14;100833.91;4213292;28;20317;-70
2023/10/09 02:03:23;;;;;;;23.53;7.67;;;;;;;2.05;80.52;100841.13;4211674;28;20235;-68
2023/10/09 02:05:53;;;;;;;21.97;7.87;;;;;;;2.25;79.99;100828.50;4213000;28;20240;-71
2023/10/09 02:08:35;;;;;;;19.53;6.70;;;;;;;2.22;80.00;100834.88;4209318;28;20800;-68
2023/10/09 02:11:02;;;;;;;22.60;6.30;;;;;;;2.30;79.86;100837.13;4209308;28;20259;-69
2023/10/09 02:13:29;;;;;;;21.67;5.40;;;;;;;2.31;79.49;100836.16;4211790;28;20236;-67
2023/10/09 02:16:13;;;;;;;15.13;5.00;;;;;;;2.24;79.61;100829.44;4206648;28;25591;-71
2023/10/09 02:18:41;;;;;;;14.27;5.20;;;;;;;2.19;79.47;100817.22;4212681;28;21851;-68
2023/10/09 02:23:40;;;;;;;24.37;5.23;;;;;;;2.45;78.52;100836.28;4208447;28;20662;-68
2023/10/09 02:26:08;;;;;;;13.10;4.50;;;;;;;2.44;78.37;100828.34;4208190;28;23083;-70
2023/10/09 02:28:36;;;;;;;14.93;4.33;;;;;;;2.55;77.87;100825.94;4210090;28;20243;-69
2023/10/09 02:31:12;;;;;;;14.07;4.47;;;;;;;2.54;77.95;100827.72;4214632;28;21720;-69
2023/10/09 02:33:40;;;;;;;10.37;4.20;;;;;;;2.65;77.71;100829.81;4211041;28;22674;-68
2023/10/09 02:36:07;;;;;;;8.73;3.63;;;;;;;2.63;77.75;100817.47;4205237;28;20231;-70
2023/10/09 02:38:40;;;;;;;13.43;4.10;;;;;;;2.57;77.77;100816.00;4211217;28;20251;-69
2023/10/09 02:43:46;;;;;;;10.43;3.93;;;;;;;2.38;79.21;100830.41;4218468;28;20232;-69
2023/10/09 02:46:17;;;;;;;15.73;4.37;;;;;;;2.34;79.37;100828.84;4204884;28;20360;-70
2023/10/09 02:48:52;;;;;;;10.50;4.07;;;;;;;2.26;79.87;100812.41;4216928;28;22801;-70
2023/10/09 02:53:57;;;;;;;12.43;4.60;;;;;;;2.20;80.22;100821.59;4209319;28;20227;-71
2023/10/09 02:56:36;;;;;;;12.20;4.03;;;;;;;2.24;80.27;100816.06;4202077;28;20292;-70
2023/10/09 02:59:07;;;;;;;8.67;3.47;;;;;;;2.15;80.96;100810.28;4213646;28;20294;-68
2023/10/09 03:01:38;;;;;;;8.13;3.40;;;;;;;2.04;81.37;100813.53;4228495;28;20314;-70
2023/10/09 03:04:06;;;;;;;12.97;4.00;;;;;;;2.04;81.55;100812.69;4204175;28;20224;-70
2023/10/09 03:06:38;;;;;;;7.23;3.90;;;;;;;2.05;81.47;100820.63;4208928;28;23173;-69
2023/10/09 03:09:16;;;;;;;8.97;4.03;;;;;;;1.90;82.35;100821.44;4214005;28;20243;-69
2023/10/09 03:11:53;;;;;;;9.40;4.17;;;;;;;1.85;83.19;100820.84;4209967;28;21173;-70
2023/10/09 03:14:21;;;;;;;12.03;4.00;;;;;;;1.85;82.92;100808.34;4200597;28;20304;-68
2023/10/09 03:16:50;;;;;;;9.80;3.67;;;;;;;1.87;83.10;100808.28;4213707;28;20344;-69
2023/10/09 03:19:17;;;;;;;10.30;3.93;;;;;;;2.00;82.74;100812.00;4212360;28;20694;-68
2023/10/09 03:21:44;;;;;;;16.43;4.00;;;;;;;2.09;82.29;100813.31;4211166;28;20740;-69
2023/10/09 03:24:11;;;;;;;13.43;4.33;;;;;;;2.07;82.12;100809.88;4205243;28;20228;-69
2023/10/09 03:26:38;;;;;;;9.33;3.93;;;;;;;1.93;82.94;100807.09;4208599;28;20321;-70
2023/10/09 03:29:06;;;;;;;11.37;3.93;;;;;;;1.88;83.20;100810.00;4211199;28;20261;-70
2023/10/09 03:31:33;;;;;;;9.90;4.10;;;;;;;1.84;83.37;100811.09;4210109;28;20266;-69
2023/10/09 03:34:00;;;;;;;11.43;4.00;;;;;;;1.82;83.50;100821.88;4193811;28;20547;-71
2023/10/09 03:36:28;;;;;;;10.60;3.83;;;;;;;1.85;83.72;100815.50;4214582;28;20236;-70
2023/10/09 03:38:57;;;;;;;10.80;4.07;;;;;;;1.83;83.86;100793.34;4202100;28;20294;-70
2023/10/09 03:41:29;;;;;;;9.90;4.47;;;;;;;1.94;83.33;100799.00;4210572;28;20863;-71
2023/10/09 03:43:55;;;;;;;14.90;4.67;;;;;;;1.97;82.84;100792.63;4204588;28;20364;-69
2023/10/09 03:46:26;;;;;;;10.20;4.13;;;;;;;2.01;83.09;100789.69;4221640;28;20411;-69
2023/10/09 03:48:56;;;;;;;11.03;4.13;;;;;;;2.11;82.30;100791.88;4221356;28;20764;-70
2023/10/09 03:51:23;;;;;;;9.93;4.30;;;;;;;2.01;83.43;100795.03;4211548;28;20239;-68
2023/10/09 03:53:52;;;;;;;10.13;4.10;;;;;;;2.07;83.26;100796.53;4206414;28;20236;-70
2023/10/09 03:56:21;;;;;;;9.53;3.57;;;;;;;2.03;83.24;100793.16;4212532;28;20244;-72
2023/10/09 03:58:49;;;;;;;9.67;4.03;;;;;;;1.95;83.62;100795.38;4209297;28;21506;-70
2023/10/09 04:01:28;;;;;;;10.17;3.80;;;;;;;1.94;84.03;100790.97;4198140;28;20248;-71
2023/10/09 04:03:59;;;;;;;9.13;3.67;;;;;;;1.89;84.14;100793.00;4199689;28;20312;-69
2023/10/09 04:06:31;;;;;;;12.37;4.17;;;;;;;1.94;84.37;100795.44;4215642;28;20574;-69
2023/10/09 04:12:12;;;;;;;12.43;3.77;;;;;;;1.95;84.42;100803.41;4200649;28;22852;-69
2023/10/09 04:14:49;;;;;;;14.80;4.40;;;;;;;1.98;84.42;100797.03;4221027;28;20434;-69
2023/10/09 04:20:16;;;;;;;17.30;4.47;;;;;;;2.15;83.96;100785.41;4218805;28;20592;-68
2023/10/09 04:22:49;;;;;;;13.63;4.20;;;;;;;2.27;82.99;100803.41;4204804;28;20282;-69
2023/10/09 04:25:25;;;;;;;9.67;4.07;;;;;;;2.34;82.88;100786.09;4222369;28;21713;-71
2023/10/09 04:28:08;;;;;;;9.50;3.77;;;;;;;2.49;82.29;100779.03;4221455;28;20269;-69
2023/10/09 04:30:46;;;;;;;12.23;4.13;;;;;;;2.53;81.62;100777.91;4204511;28;21771;-68
2023/10/09 04:33:42;;;;;;;11.23;4.60;;;;;;;2.60;81.34;100758.88;4226345;28;22898;-69
2023/10/09 04:41:51;;;;;;;11.70;4.43;;;;;;;2.66;80.23;100746.00;4212920;28;20236;-69
2023/10/09 04:44:19;;;;;;;12.07;4.23;;;;;;;2.78;80.54;100739.06;4218548;28;20281;-72
2023/10/09 04:52:51;;;;;;;10.40;4.40;;;;;;;2.81;80.84;100744.25;4219588;28;20605;-71
2023/10/09 04:57:38;;;;;;;8.57;3.97;;;;;;;2.72;81.07;100722.56;4209012;28;22788;-71
2023/10/09 05:03:04;;;;;;;9.27;3.73;;;;;;;3.20;78.78;100722.38;4219918;28;20231;-74
2023/10/09 05:08:21;;;;;;;8.13;3.30;;;;;;;3.16;78.85;100697.63;4214932;28;20242;-72
2023/10/09 05:16:28;;;;;;;11.80;3.80;;;;;;;3.22;77.91;100685.69;4219871;28;20239;-72
2023/10/09 05:18:56;;;;;;;9.50;3.80;;;;;;;3.35;77.01;100669.75;4209778;28;20237;-72
2023/10/09 05:21:36;;;;;;;9.83;4.00;;;;;;;3.54;76.35;100670.34;4208036;28;20372;-74
2023/10/09 05:37:33;;;;;;;9.37;3.80;;;;;;;3.96;73.49;100681.94;4207156;28;20227;-69
2023/10/09 05:42:46;;;;;;;10.67;3.27;;;;;;;3.99;73.39;100685.38;4230039;28;20228;-71
2023/10/09 05:55:48;;;;;;;9.23;3.20;;;;;;;4.17;72.48;100662.75;4211526;28;20298;-73
2023/10/09 06:03:16;;;;;;;9.70;3.63;;;;;;;4.46;71.22;100665.31;4209650;28;20236;-73
2023/10/09 06:04:04;;;;;;;12.10;3.63;;;;;;;4.41;71.42;100665.63;4220261;28;20224;-71
2023/10/09 06:06:42;;;;;;;9.93;3.70;;;;;;;4.47;70.95;100661.66;4229474;28;20305;-73
2023/10/09 06:11:54;;;;;;;12.53;3.90;;;;;;;4.60;70.23;100656.34;4217147;28;21973;-71
2023/10/09 06:14:49;;;;;;;11.20;3.37;;;;;;;4.69;70.19;100657.53;4213784;28;20290;-71
2023/10/09 06:17:27;;;;;;;9.83;3.37;;;;;;;4.66;69.26;100655.09;4240723;28;20265;-72
2023/10/09 06:20:39;;;;;;;11.50;3.70;;;;;;;4.75;68.78;100654.47;4218659;28;20239;-73
2023/10/09 06:22:56;;;;;;;9.67;3.23;;;;;;;4.75;68.64;100665.19;4224529;28;23599;-72
2023/10/09 06:25:32;;;;;;;10.80;3.23;;;;;;;4.84;68.53;100661.00;4202440;28;20232;-72
2023/10/09 06:27:59;;;;;;;11.53;3.57;;;;;;;4.84;68.53;100671.75;4210576;28;20422;-73
2023/10/09 06:30:27;;;;;;;13.67;3.63;;;;;;;4.96;68.32;100664.69;4221366;28;20323;-71
2023/10/09 06:35:22;;;;;;;10.83;3.40;;;;;;;5.01;68.62;100671.47;4205277;28;20456;-72
2023/10/09 06:46:43;;;;;;;16.87;4.30;;;;;;;5.29;68.91;100664.16;4211977;28;20251;-71
2023/10/09 06:48:46;;;;;;;12.70;4.03;;;;;;;5.35;68.72;100663.72;4217390;28;21545;-71
2023/10/09 06:54:04;;;;;;;14.10;3.90;;;;;;;5.43;68.06;100665.00;4225495;28;22369;-72
2023/10/09 07:07:13;;;;;;;11.63;3.60;;;;;;;5.98;66.31;100669.09;4206603;28;21644;-74
2023/10/09 07:09:42;;;;;;;14.23;4.57;;;;;;;6.05;65.97;100660.63;4228990;28;21294;-70
2023/10/09 07:12:14;;;;;;;17.77;3.77;;;;;;;5.90;66.21;100668.81;4246199;28;20228;-71
2023/10/09 07:15:01;;;;;;;15.37;4.10;;;;;;;5.93;66.35;100675.78;4219662;28;21134;-70
2023/10/09 07:20:15;;;;;;;14.40;3.60;;;;;;;6.23;66.92;100669.16;4219318;28;20317;-75
2023/10/09 07:22:56;;;;;;;12.30;3.97;;;;;;;6.34;65.32;100677.28;4209920;28;20422;-73
2023/10/09 07:25:42;;;;;;;11.23;3.83;;;;;;;6.33;64.73;100676.41;4268441;28;20233;-72
2023/10/09 07:28:28;;;;;;;11.10;4.10;;;;;;;7.29;62.13;100671.00;4284135;28;20406;-70
2023/10/09 07:30:58;;;;;;;10.87;3.83;;;;;;;7.26;61.58;100658.63;4243708;28;21769;-71
2023/10/09 07:36:13;;;;;;;17.00;4.20;;;;;;;9.63;54.08;100654.38;4222019;28;20241;-70
2023/10/09 07:38:44;;;;;;;19.07;4.50;;;;;;;9.95;52.37;100651.50;4263618;28;22169;-74
2023/10/09 07:43:39;;;;;;;11.10;3.23;;;;;;;10.11;50.96;100650.13;4228316;28;20340;-69
2023/10/09 07:48:56;;;;;;;10.90;3.23;;;;;;;8.22;57.20;100661.75;4223358;28;22048;-72
2023/10/09 07:51:30;;;;;;;11.77;3.57;;;;;;;9.06;55.69;100668.28;4215327;28;20544;-70
2023/10/09 07:54:07;;;;;;;8.13;3.60;;;;;;;9.48;53.13;100678.19;4217078;28;21798;-70
2023/10/09 07:57:08;;;;;;;15.27;3.57;;;;;;;8.92;54.60;100663.22;4235277;28;21766;-72
2023/10/09 07:59:23;;;;;;;10.73;3.20;;;;;;;8.62;56.14;100665.69;4216599;28;20806;-70
2023/10/09 08:02:02;;;;;;;12.83;3.90;;;;;;;9.51;54.49;100656.31;4204624;28;20358;-71
2023/10/09 08:07:19;;;;;;;9.63;3.60;;;;;;;10.43;49.19;100643.63;4226809;28;20247;-72
2023/10/09 08:17:48;;;;;;;16.70;3.27;;;;;;;9.74;51.56;100635.34;4232719;28;26710;-71
2023/10/09 08:20:17;;;;;;;12.97;3.60;;;;;;;9.66;51.97;100627.94;4218609;28;20232;-71
2023/10/09 08:22:50;;;;;;;11.23;3.67;;;;;;;9.55;52.66;100640.69;4220437;28;20244;-71
2023/10/09 08:25:31;;;;;;;8.17;3.33;;;;;;;9.66;52.16;100636.06;4238231;28;20564;-68
2023/10/09 08:36:01;;;;;;;7.07;2.47;;;;;;;10.65;49.60;100639.78;4233148;28;20731;-72
2023/10/09 08:38:33;;;;;;;8.40;2.90;;;;;;;10.69;49.83;100632.25;4214931;28;23144;-72
2023/10/09 08:41:18;;;;;;;6.37;2.53;;;;;;;11.98;46.38;100631.72;4228021;28;20295;-70
2023/10/09 08:43:52;;;;;;;10.83;2.93;;;;;;;11.66;45.56;100622.13;4230675;28;20228;-71
2023/10/09 08:46:27;;;;;;;10.53;2.57;;;;;;;10.07;50.30;100619.78;4224570;28;22960;-71
2023/10/09 08:49:05;;;;;;;7.20;3.00;;;;;;;10.22;50.11;100620.22;4216123;28;20281;-71
2023/10/09 08:51:35;;;;;;;11.23;3.50;;;;;;;10.76;48.85;100620.66;4208762;28;20298;-72
2023/10/09 08:54:01;;;;;;;8.80;2.57;;;;;;;10.83;48.66;100622.81;4222420;28;21121;-72
2023/10/09 08:56:30;;;;;;;10.07;2.97;;;;;;;11.13;47.35;100619.03;4187437;28;20229;-73
2023/10/09 08:59:02;;;;;;;10.00;2.97;;;;;;;11.19;47.25;100620.31;4212654;28;20317;-72
2023/10/09 09:01:32;;;;;;;7.10;2.77;;;;;;;11.13;47.26;100610.91;4205496;28;20327;-69
2023/10/09 09:03:59;;;;;;;6.73;2.77;;;;;;;11.16;47.58;100610.63;4229672;28;20234;-72
2023/10/09 09:06:26;;;;;;;10.23;2.90;;;;;;;11.49;46.02;100608.38;4205637;28;22215;-70
2023/10/09 09:08:59;;;;;;;12.63;3.10;;;;;;;11.62;45.76;100602.59;4203558;28;23514;-71
2023/10/09 09:11:30;;;;;;;10.87;2.53;;;;;;;11.85;44.46;100594.06;4212679;28;20236;-72
2023/10/09 09:14:05;;;;;;;8.80;2.40;;;;;;;11.40;44.07;100587.59;4223882;28;21984;-69
2023/10/09 09:16:36;;;;;;;6.30;1.90;;;;;;;11.55;44.41;100585.22;4228604;28;20292;-73
2023/10/09 09:19:17;;;;;;;9.03;2.10;;;;;;;10.70;47.09;100580.63;4218600;28;20232;-69
2023/10/09 09:21:54;;;;;;;7.53;2.30;;;;;;;11.20;46.65;100570.56;4249450;28;20246;-71
2023/10/09 09:26:59;;;;;;;8.47;2.33;;;;;;;11.40;45.10;100574.88;4223386;28;20727;-70
2023/10/09 09:29:38;;;;;;;5.90;1.50;;;;;;;11.43;44.11;100570.19;4219584;28;20260;-69
2023/10/09 09:32:22;;;;;;;5.93;1.50;;;;;;;10.63;46.21;100571.38;4213062;28;20225;-70
2023/10/09 09:34:57;;;;;;;7.10;1.80;;;;;;;10.99;46.51;100581.59;4219538;28;20462;-71
2023/10/09 09:37:38;;;;;;;4.33;1.50;;;;;;;10.99;45.88;100574.31;4204417;28;20240;-70
2023/10/09 09:40:53;;;;;;;3.27;1.63;;;;;;;10.80;45.02;100560.81;4214148;28;20244;-69
2023/10/09 09:43:04;;;;;;;3.77;1.60;;;;;;;10.53;45.06;100555.16;4206144;28;20565;-70
2023/10/09 09:45:37;;;;;;;4.17;1.73;;;;;;;10.68;46.00;100561.00;4198784;28;20318;-73
2023/10/09 09:48:13;;;;;;;4.03;1.50;;;;;;;11.08;44.15;100556.34;4211748;28;20244;-73
2023/10/09 09:50:46;;;;;;;6.17;2.00;;;;;;;10.87;44.47;100546.56;4233619;28;22128;-70
2023/10/09 09:53:18;;;;;;;6.00;1.90;;;;;;;11.01;44.85;100538.97;4215068;28;20260;-75
2023/10/09 09:55:57;;;;;;;5.03;2.37;;;;;;;10.85;47.91;100543.16;4214106;28;22152;-75
2023/10/09 09:58:42;;;;;;;6.63;2.13;;;;;;;10.55;47.41;100545.06;4210572;28;21825;-73
2023/10/09 10:01:24;;;;;;;6.03;1.97;;;;;;;10.20;48.27;100541.03;4229793;28;21871;-74
2023/10/09 10:04:20;;;;;;;8.07;2.10;;;;;;;9.90;48.48;100542.03;4224911;28;20235;-72
2023/10/09 10:06:49;;;;;;;4.97;1.30;;;;;;;10.20;46.07;100540.19;4230025;28;21179;-71
2023/10/09 10:09:44;;;;;;;3.83;1.60;;;;;;;10.74;44.67;100533.34;4209861;28;21683;-72
2023/10/09 10:12:14;;;;;;;6.97;1.97;;;;;;;10.25;46.52;100527.09;4206248;28;22090;-73
2023/10/09 10:14:58;;;;;;;5.07;1.97;;;;;;;10.51;47.13;100529.25;4230750;28;21827;-69
2023/10/09 10:17:29;;;;;;;5.03;2.13;;;;;;;10.02;48.14;100519.25;4197349;28;20497;-72
2023/10/09 10:22:47;;;;;;;5.53;1.70;;;;;;;10.55;45.57;100514.41;4207468;28;20293;-69
2023/10/09 10:25:41;;;;;;;6.20;1.97;;;;;;;10.82;45.38;100504.66;4195885;28;20577;-70
2023/10/09 10:28:28;;;;;;;6.87;2.10;;;;;;;10.86;45.36;100503.38;4212838;28;20312;-71
2023/10/09 10:30:59;;;;;;;8.47;2.10;;;;;;;10.96;45.32;100501.47;4216817;28;20236;-70
2023/10/09 10:33:47;;;;;;;12.40;2.10;;;;;;;10.72;46.06;100500.13;4210033;28;21342;-69
2023/10/09 10:36:22;;;;;;;10.17;1.70;;;;;;;10.53;46.75;100508.31;4213817;28;20352;-70
2023/10/09 10:39:10;;;;;;;11.80;2.20;;;;;;;10.51;46.61;100494.91;4217199;28;21469;-68
2023/10/09 10:41:50;;;;;;;6.47;1.67;;;;;;;10.05;49.11;100491.94;4203247;28;20233;-69
2023/10/09 10:44:38;;;;;;;5.60;2.07;;;;;;;9.62;49.43;100493.22;4214857;28;20251;-70
2023/10/09 10:47:56;;;;;;;7.97;2.00;;;;;;;9.41;50.15;100488.72;4202070;28;21932;-70
2023/10/09 10:49:58;;;;;;;4.30;1.63;;;;;;;9.14;49.26;100500.19;4194206;28;20235;-70
2023/10/09 10:52:36;;;;;;;2.40;1.40;;;;;;;9.14;50.06;100482.13;4207560;28;20236;-70
2023/10/09 10:58:13;;;;;;;6.73;2.00;;;;;;;9.60;50.97;100478.97;4211900;28;20229;-69
2023/10/09 11:06:14;;;;;;;2.80;1.33;;;;;;;9.36;50.09;100475.63;4225992;28;20236;-70
2023/10/09 11:08:56;;;;;;;4.17;1.50;;;;;;;9.52;50.95;100471.53;4194612;28;20604;-69
2023/10/09 11:11:23;;;;;;;5.23;1.90;;;;;;;9.18;51.65;100472.75;4196803;28;20340;-68
2023/10/09 11:13:57;;;;;;;3.87;1.60;;;;;;;9.15;52.32;100474.88;4185164;28;25225;-67
2023/10/09 11:22:39;;;;;;;6.83;2.10;;;;;;;9.22;53.72;100457.13;4208425;28;22980;-70
2023/10/09 11:25:00;;;;;;;6.83;2.10;;;;;;;9.46;53.39;100454.06;4210239;28;22404;-68
2023/10/09 11:27:32;;;;;;;7.40;2.63;;;;;;;9.68;53.40;100460.19;4200967;28;21211;-67
2023/10/09 11:30:12;;;;;;;5.33;2.23;;;;;;;9.40;54.86;100459.16;4206332;28;21155;-67
2023/10/09 11:32:39;;;;;;;5.17;2.20;;;;;;;9.47;55.50;100460.31;4197762;28;20245;-68
2023/10/09 11:35:27;;;;;;;7.07;2.40;;;;;;;9.80;54.47;100467.16;4194648;28;25908;-69
2023/10/09 11:37:56;;;;;;;6.20;2.30;;;;;;;9.62;55.73;100456.22;4210100;28;20336;-68
2023/10/09 11:43:50;;;;;;;6.20;2.43;;;;;;;9.32;58.43;100444.50;4197652;28;20368;-69
2023/10/09 11:46:13;;;;;;;7.33;2.30;;;;;;;9.30;59.42;100448.34;4194548;28;20246;-67
2023/10/09 11:48:46;;;;;;;6.00;2.40;;;;;;;9.14;60.05;100440.78;4197029;28;20229;-66
2023/10/09 11:51:19;;;;;;;10.47;2.83;;;;;;;9.21;60.58;100436.53;4194051;28;22577;-69
2023/10/09 11:53:49;;;;;;;7.13;2.80;;;;;;;9.20;61.41;100435.66;4194412;28;20604;-67
2023/10/09 11:56:19;;;;;;;7.33;2.60;;;;;;;9.05;62.46;100434.34;4193056;28;20309;-68
2023/10/09 11:58:53;;;;;;;6.33;2.80;;;;;;;9.06;63.14;100432.50;4223014;28;20232;-67
2023/10/09 12:01:21;;;;;;;8.27;3.57;;;;;;;9.10;63.28;100444.72;4216073;28;20807;-69
2023/10/09 12:03:50;;;;;;;9.50;3.00;;;;;;;9.03;63.69;100431.78;4193053;28;20468;-69
2023/10/09 12:06:22;;;;;;;7.33;3.50;;;;;;;9.03;64.39;100433.63;4222084;28;20237;-69
2023/10/09 12:08:50;;;;;;;8.30;3.30;;;;;;;8.96;65.54;100435.16;4223698;28;20257;-69
2023/10/09 12:11:28;;;;;;;6.97;3.23;;;;;;;8.88;65.86;100431.28;4208571;28;20228;-68
2023/10/09 12:13:57;;;;;;;7.87;3.17;;;;;;;9.20;65.25;100448.31;4198048;28;20726;-69
2023/10/09 12:16:33;;;;;;;8.30;3.37;;;;;;;8.92;65.46;100425.63;4220943;28;20438;-69
2023/10/09 12:19:02;;;;;;;8.47;3.20;;;;;;;9.26;65.01;100419.88;4217465;28;22474;-69
2023/10/09 12:21:29;;;;;;;8.03;4.00;;;;;;;9.00;65.55;100413.16;4201372;28;21001;-67
2023/10/09 12:23:59;;;;;;;13.20;4.40;;;;;;;8.94;66.35;100410.16;4184806;28;20310;-68
2023/10/09 12:26:34;;;;;;;8.43;3.63;;;;;;;8.96;66.05;100417.13;4212883;28;20263;-69
2023/10/09 12:29:02;;;;;;;11.10;3.93;;;;;;;8.93;66.90;100409.28;4206222;28;20382;-68
2023/10/09 12:31:33;;;;;;;11.63;4.30;;;;;;;8.96;66.83;100418.94;4187795;28;20501;-71
2023/10/09 12:34:01;;;;;;;8.00;3.43;;;;;;;9.14;65.98;100427.28;4205733;28;20304;-70
2023/10/09 12:36:30;;;;;;;9.60;3.83;;;;;;;9.38;65.17;100417.91;4208510;28;20236;-71
2023/10/09 12:39:01;;;;;;;7.93;3.60;;;;;;;9.04;66.50;100428.09;4217642;28;20802;-70
2023/10/09 12:41:28;;;;;;;9.67;3.97;;;;;;;8.84;67.49;100421.78;4201585;28;22813;-70
2023/10/09 12:44:00;;;;;;;8.60;3.53;;;;;;;8.92;67.86;100417.53;4210839;28;20232;-70
2023/10/09 12:46:27;;;;;;;7.30;3.70;;;;;;;8.81;68.11;100421.19;4190161;28;20854;-70
2023/10/09 12:48:55;;;;;;;7.67;3.70;;;;;;;8.88;67.91;100422.34;4217666;28;20514;-69
2023/10/09 12:51:29;;;;;;;10.97;4.00;;;;;;;9.02;66.67;100418.44;4198392;28;20384;-70
2023/10/09 12:53:57;;;;;;;10.67;4.10;;;;;;;8.99;66.42;100419.53;4205466;28;20240;-70
2023/10/09 12:56:32;;;;;;;9.20;3.97;;;;;;;9.03;66.47;100417.41;4194155;28;20241;-72
2023/10/09 12:59:01;;;;;;;10.70;4.43;;;;;;;9.03;67.43;100425.50;4207201;28;20435;-70
2023/10/09 13:01:32;;;;;;;8.80;3.87;;;;;;;8.90;67.27;100417.69;4202859;28;20232;-70
2023/10/09 13:04:02;;;;;;;12.33;5.23;;;;;;;8.88;67.38;100407.00;4229775;28;20239;-71
2023/10/09 13:06:43;;;;;;;12.20;4.47;;;;;;;8.80;68.94;100408.69;4209868;28;21393;-69
2023/10/09 13:09:14;;;;;;;10.40;4.00;;;;;;;8.67;69.31;100414.31;4211638;28;20406;-68
2023/10/09 13:11:43;;;;;;;10.17;4.63;;;;;;;8.70;69.59;100409.50;4197035;28;20422;-69
2023/10/09 13:14:22;;;;;;;10.30;4.67;;;;;;;8.71;69.29;100405.81;4197247;28;20529;-68
2023/10/09 13:16:52;;;;;;;12.27;4.70;;;;;;;8.81;69.76;100405.00;4216593;28;20824;-68
2023/10/09 13:19:24;;;;;;;9.93;3.97;;;;;;;8.69;69.94;100409.63;4205209;28;20243;-68
2023/10/09 13:21:53;;;;;;;12.77;4.43;;;;;;;8.63;70.00;100404.78;4202158;28;20337;-67
2023/10/09 13:24:24;;;;;;;7.90;3.70;;;;;;;8.53;69.84;100400.19;4198886;28;20255;-67
2023/10/09 13:26:52;;;;;;;10.47;4.27;;;;;;;8.59;69.99;100397.94;4191710;28;21676;-68
2023/10/09 13:29:24;;;;;;;13.63;4.20;;;;;;;8.65;69.46;100397.41;4210781;28;21189;-69
2023/10/09 13:31:58;;;;;;;9.47;4.17;;;;;;;8.51;69.57;100371.66;4207446;28;21018;-69
2023/10/09 13:34:28;;;;;;;11.70;4.50;;;;;;;8.46;70.97;100376.56;4201069;28;20237;-72
2023/10/09 13:36:58;;;;;;;9.37;4.00;;;;;;;8.36;71.05;100373.81;4199405;28;20252;-70
2023/10/09 13:39:26;;;;;;;9.17;3.97;;;;;;;8.35;71.52;100388.28;4203233;28;20781;-66
2023/10/09 13:41:58;;;;;;;14.67;5.10;;;;;;;8.22;71.96;100383.97;4200498;28;20744;-69
2023/10/09 13:44:27;;;;;;;8.27;3.90;;;;;;;8.21;72.38;100381.41;4208919;28;20270;-71
2023/10/09 13:47:05;;;;;;;10.00;4.10;;;;;;;8.20;72.61;100371.63;4200507;28;22277;-67
2023/10/09 13:49:34;;;;;;;10.73;4.37;;;;;;;8.17;72.31;100378.13;4217782;28;20239;-70
2023/10/09 13:52:02;;;;;;;13.60;4.33;;;;;;;8.35;71.81;100378.38;4209816;28;21440;-70
2023/10/09 13:57:04;;;;;;;9.50;5.03;;;;;;;8.38;72.02;100364.59;4240357;28;20250;-71
2023/10/09 13:59:43;;;;;;;9.67;4.30;;;;;;;8.23;72.37;100368.66;4248834;28;20545;-70
2023/10/09 14:02:09;;;;;;;10.93;4.70;;;;;;;8.44;72.39;100360.50;4207935;28;21210;-70
2023/10/09 14:04:37;;;;;;;12.97;4.43;;;;;;;8.38;72.18;100348.41;4207967;28;22408;-79
2023/10/09 14:07:08;;;;;;;11.57;4.40;;;;;;;8.37;71.91;100356.63;4216829;28;23348;-74
2023/10/09 14:09:38;;;;;;;8.70;3.93;;;;;;;8.32;72.25;100367.84;4199602;28;21624;-75
2023/10/09 14:12:11;;;;;;;9.03;4.13;;;;;;;8.55;71.49;100357.75;4201570;28;23468;-81
2023/10/09 14:14:48;;;;;;;12.57;4.20;;;;;;;8.50;71.69;100364.53;4206359;28;21457;-76
2023/10/09 14:17:19;;;;;;;8.43;4.17;;;;;;;8.27;72.73;100371.94;4202351;28;20233;-77
2023/10/09 14:19:51;;;;;;;12.20;4.23;;;;;;;8.32;72.75;100378.63;4196638;28;20995;-76
2023/10/09 14:22:29;;;;;;;9.73;4.47;;;;;;;8.46;72.40;100366.63;4209223;28;20394;-76
2023/10/09 14:24:56;;;;;;;13.03;4.50;;;;;;;8.63;71.55;100364.31;4210831;28;21762;-76
2023/10/09 14:27:26;;;;;;;13.17;4.50;;;;;;;8.66;71.32;100373.00;4197018;28;20337;-76
2023/10/09 14:30:01;;;;;;;10.77;4.80;;;;;;;8.67;71.34;100376.53;4208179;28;20232;-76
2023/10/09 14:32:43;;;;;;;11.40;4.53;;;;;;;8.60;71.72;100375.38;4201950;28;20244;-76
2023/10/09 14:35:13;;;;;;;11.30;4.90;;;;;;;8.59;72.00;100368.25;4202068;28;20241;-76
2023/10/09 14:37:41;;;;;;;10.87;4.60;;;;;;;8.66;72.88;100366.72;4197379;28;20233;-77